sensor_id;sensor_type;location;lat;lon;timestamp;temperature;humidity
27567;DHT22;15006;48.584;9.186;2022-11-20T00:01:33;1.50;99.90
27567;DHT22;15006;48.584;9.186;2022-11-20T00:03:59;1.50;99.90
27567;DHT22;15006;48.584;9.186;2022-11-20T00:06:27;1.40;99.90
27567;DHT22;15006;48.584;9.186;2022-11-20T00:08:55;1.40;99.90
27567;DHT22;15006;48.584;9.186;2022-11-20T00:11:24;1.30;99.90
27567;DHT22;15006;48.584;9.186;2022-11-20T00:13:53;1.20;99.90
27567;DHT22;15006;48.584;9.186;2022-11-20T00:16:22;1.20;99.90
27567;DHT22;15006;48.584;9.186;2022-11-20T00:18:50;1.20;99.90
27567;DHT22;15006;48.584;9.186;2022-11-20T00:21:22;1.10;99.90
27567;DHT22;15006;48.584;9.186;2022-11-20T00:23:50;1.00;99.90
27567;DHT22;15006;48.584;9.186;2022-11-20T00:26:18;1.00;99.90
27567;DHT22;15006;48.584;9.186;2022-11-20T00:28:51;0.90;99.90
27567;DHT22;15006;48.584;9.186;2022-11-20T00:31:21;0.80;99.90
27567;DHT22;15006;48.584;9.186;2022-11-20T00:33:47;0.70;99.90
27567;DHT22;15006;48.584;9.186;2022-11-20T00:36:16;0.60;99.90
27567;DHT22;15006;48.584;9.186;2022-11-20T00:38:44;0.60;99.90
27567;DHT22;15006;48.584;9.186;2022-11-20T00:41:12;0.50;99.90
27567;DHT22;15006;48.584;9.186;2022-11-20T00:43:40;0.40;99.90
27567;DHT22;15006;48.584;9.186;2022-11-20T00:46:17;0.30;99.90
27567;DHT22;15006;48.584;9.186;2022-11-20T00:48:45;0.30;99.90
27567;DHT22;15006;48.584;9.186;2022-11-20T00:51:13;0.20;99.90
27567;DHT22;15006;48.584;9.186;2022-11-20T00:53:41;0.20;99.90
27567;DHT22;15006;48.584;9.186;2022-11-20T00:56:11;0.10;99.90
27567;DHT22;15006;48.584;9.186;2022-11-20T00:58:39;0.10;99.90
27567;DHT22;15006;48.584;9.186;2022-11-20T01:01:15;0.00;99.90
27567;DHT22;15006;48.584;9.186;2022-11-20T01:03:44;-0.10;99.90
27567;DHT22;15006;48.584;9.186;2022-11-20T01:06:30;-0.10;99.90
27567;DHT22;15006;48.584;9.186;2022-11-20T01:09:00;-0.20;99.90
27567;DHT22;15006;48.584;9.186;2022-11-20T01:11:34;-0.20;99.90
27567;DHT22;15006;48.584;9.186;2022-11-20T01:14:03;-0.20;99.90
27567;DHT22;15006;48.584;9.186;2022-11-20T01:16:37;-0.30;99.90
27567;DHT22;15006;48.584;9.186;2022-11-20T01:19:11;-0.30;99.90
27567;DHT22;15006;48.584;9.186;2022-11-20T01:21:41;-0.30;99.90
27567;DHT22;15006;48.584;9.186;2022-11-20T01:24:11;-0.30;99.90
27567;DHT22;15006;48.584;9.186;2022-11-20T01:26:40;-0.40;99.90
27567;DHT22;15006;48.584;9.186;2022-11-20T01:29:13;-0.40;99.90
27567;DHT22;15006;48.584;9.186;2022-11-20T01:31:47;-0.50;99.90
27567;DHT22;15006;48.584;9.186;2022-11-20T01:34:16;-0.50;99.90
27567;DHT22;15006;48.584;9.186;2022-11-20T01:36:43;-0.60;99.90
27567;DHT22;15006;48.584;9.186;2022-11-20T01:41:39;-0.60;99.90
27567;DHT22;15006;48.584;9.186;2022-11-20T01:47:23;-0.70;99.90
27567;DHT22;15006;48.584;9.186;2022-11-20T01:49:58;-0.60;99.90
27567;DHT22;15006;48.584;9.186;2022-11-20T01:52:42;-0.70;99.90
27567;DHT22;15006;48.584;9.186;2022-11-20T01:55:28;-0.60;99.90
27567;DHT22;15006;48.584;9.186;2022-11-20T01:58:02;-0.70;99.90
27567;DHT22;15006;48.584;9.186;2022-11-20T02:00:29;-0.70;99.90
27567;DHT22;15006;48.584;9.186;2022-11-20T02:02:58;-0.70;99.90
27567;DHT22;15006;48.584;9.186;2022-11-20T02:08:33;-0.80;99.90
27567;DHT22;15006;48.584;9.186;2022-11-20T02:10:59;-0.80;99.90
27567;DHT22;15006;48.584;9.186;2022-11-20T02:13:25;-0.90;99.90
27567;DHT22;15006;48.584;9.186;2022-11-20T02:18:47;-1.00;99.90
27567;DHT22;15006;48.584;9.186;2022-11-20T02:24:14;-1.00;99.90
27567;DHT22;15006;48.584;9.186;2022-11-20T02:26:55;-1.10;99.90
27567;DHT22;15006;48.584;9.186;2022-11-20T02:29:32;-1.10;99.90
27567;DHT22;15006;48.584;9.186;2022-11-20T02:32:29;-1.10;99.90
27567;DHT22;15006;48.584;9.186;2022-11-20T02:34:57;-1.20;99.90
27567;DHT22;15006;48.584;9.186;2022-11-20T02:37:27;-1.20;99.90
27567;DHT22;15006;48.584;9.186;2022-11-20T02:39:56;-1.20;99.90
27567;DHT22;15006;48.584;9.186;2022-11-20T02:42:22;-1.30;99.90
27567;DHT22;15006;48.584;9.186;2022-11-20T02:44:48;-1.30;99.90
27567;DHT22;15006;48.584;9.186;2022-11-20T02:47:14;-1.30;99.90
27567;DHT22;15006;48.584;9.186;2022-11-20T02:49:40;-1.30;99.90
27567;DHT22;15006;48.584;9.186;2022-11-20T02:52:06;-1.30;99.90
27567;DHT22;15006;48.584;9.186;2022-11-20T02:54:32;-1.30;99.90
27567;DHT22;15006;48.584;9.186;2022-11-20T02:56:58;-1.40;99.90
27567;DHT22;15006;48.584;9.186;2022-11-20T02:59:24;-1.40;99.90
27567;DHT22;15006;48.584;9.186;2022-11-20T03:01:50;-1.40;99.90
27567;DHT22;15006;48.584;9.186;2022-11-20T03:04:16;-1.40;99.90
27567;DHT22;15006;48.584;9.186;2022-11-20T03:06:42;-1.50;99.90
27567;DHT22;15006;48.584;9.186;2022-11-20T03:09:08;-1.40;99.90
27567;DHT22;15006;48.584;9.186;2022-11-20T03:11:34;-1.40;99.90
27567;DHT22;15006;48.584;9.186;2022-11-20T03:14:04;-1.40;99.90
27567;DHT22;15006;48.584;9.186;2022-11-20T03:16:31;-1.30;99.90
27567;DHT22;15006;48.584;9.186;2022-11-20T03:18:58;-1.20;99.90
27567;DHT22;15006;48.584;9.186;2022-11-20T03:21:24;-1.20;99.90
27567;DHT22;15006;48.584;9.186;2022-11-20T03:23:50;-1.10;99.90
27567;DHT22;15006;48.584;9.186;2022-11-20T03:26:20;-1.10;99.90
27567;DHT22;15006;48.584;9.186;2022-11-20T03:28:52;-1.00;99.90
27567;DHT22;15006;48.584;9.186;2022-11-20T03:31:25;-0.90;99.90
27567;DHT22;15006;48.584;9.186;2022-11-20T03:33:58;-0.90;99.90
27567;DHT22;15006;48.584;9.186;2022-11-20T03:36:25;-0.80;99.90
27567;DHT22;15006;48.584;9.186;2022-11-20T03:38:54;-0.80;99.90
27567;DHT22;15006;48.584;9.186;2022-11-20T03:41:23;-0.70;99.90
27567;DHT22;15006;48.584;9.186;2022-11-20T03:43:58;-0.70;99.90
27567;DHT22;15006;48.584;9.186;2022-11-20T03:46:29;-0.70;99.90
27567;DHT22;15006;48.584;9.186;2022-11-20T03:48:56;-0.70;99.90
27567;DHT22;15006;48.584;9.186;2022-11-20T03:51:24;-0.60;99.90
27567;DHT22;15006;48.584;9.186;2022-11-20T03:53:52;-0.60;99.90
27567;DHT22;15006;48.584;9.186;2022-11-20T03:56:23;-0.50;99.90
27567;DHT22;15006;48.584;9.186;2022-11-20T03:58:50;-0.50;99.90
27567;DHT22;15006;48.584;9.186;2022-11-20T04:01:18;-0.40;99.90
27567;DHT22;15006;48.584;9.186;2022-11-20T04:03:46;-0.30;99.90
27567;DHT22;15006;48.584;9.186;2022-11-20T04:06:14;-0.30;99.90
27567;DHT22;15006;48.584;9.186;2022-11-20T04:09:02;-0.20;99.90
27567;DHT22;15006;48.584;9.186;2022-11-20T04:11:30;-0.10;99.90
27567;DHT22;15006;48.584;9.186;2022-11-20T04:14:00;-0.10;99.90
27567;DHT22;15006;48.584;9.186;2022-11-20T04:16:34;0.00;99.90
27567;DHT22;15006;48.584;9.186;2022-11-20T04:19:03;0.10;99.90
27567;DHT22;15006;48.584;9.186;2022-11-20T04:21:30;0.20;99.90
27567;DHT22;15006;48.584;9.186;2022-11-20T04:23:56;0.30;99.90
27567;DHT22;15006;48.584;9.186;2022-11-20T04:26:25;0.30;99.90
27567;DHT22;15006;48.584;9.186;2022-11-20T04:28:52;0.40;99.90
27567;DHT22;15006;48.584;9.186;2022-11-20T04:31:30;0.50;99.90
27567;DHT22;15006;48.584;9.186;2022-11-20T04:34:02;0.60;99.90
27567;DHT22;15006;48.584;9.186;2022-11-20T04:36:30;0.70;99.90
27567;DHT22;15006;48.584;9.186;2022-11-20T04:38:58;0.80;99.90
27567;DHT22;15006;48.584;9.186;2022-11-20T04:41:28;0.80;99.90
27567;DHT22;15006;48.584;9.186;2022-11-20T04:43:59;0.90;99.90
27567;DHT22;15006;48.584;9.186;2022-11-20T04:46:34;1.10;99.90
27567;DHT22;15006;48.584;9.186;2022-11-20T04:49:01;1.10;99.90
27567;DHT22;15006;48.584;9.186;2022-11-20T04:51:28;1.20;99.90
27567;DHT22;15006;48.584;9.186;2022-11-20T04:53:54;1.30;99.90
27567;DHT22;15006;48.584;9.186;2022-11-20T04:56:21;1.40;99.90
27567;DHT22;15006;48.584;9.186;2022-11-20T04:58:47;1.40;99.90
27567;DHT22;15006;48.584;9.186;2022-11-20T05:01:18;1.50;99.90
27567;DHT22;15006;48.584;9.186;2022-11-20T05:03:46;1.50;99.90
27567;DHT22;15006;48.584;9.186;2022-11-20T05:06:14;1.60;99.90
27567;DHT22;15006;48.584;9.186;2022-11-20T05:08:41;1.70;99.90
27567;DHT22;15006;48.584;9.186;2022-11-20T05:11:09;1.70;99.90
27567;DHT22;15006;48.584;9.186;2022-11-20T05:13:37;1.70;99.90
27567;DHT22;15006;48.584;9.186;2022-11-20T05:16:11;1.80;99.90
27567;DHT22;15006;48.584;9.186;2022-11-20T05:18:39;1.80;99.90
27567;DHT22;15006;48.584;9.186;2022-11-20T05:21:07;1.80;99.90
27567;DHT22;15006;48.584;9.186;2022-11-20T05:23:34;1.80;99.90
27567;DHT22;15006;48.584;9.186;2022-11-20T05:26:00;1.80;99.90
27567;DHT22;15006;48.584;9.186;2022-11-20T05:28:28;1.90;99.90
27567;DHT22;15006;48.584;9.186;2022-11-20T05:30:55;1.90;99.90
27567;DHT22;15006;48.584;9.186;2022-11-20T05:33:21;1.90;99.90
27567;DHT22;15006;48.584;9.186;2022-11-20T05:35:47;2.00;99.90
27567;DHT22;15006;48.584;9.186;2022-11-20T05:38:14;2.00;99.90
27567;DHT22;15006;48.584;9.186;2022-11-20T05:40:40;2.00;99.90
27567;DHT22;15006;48.584;9.186;2022-11-20T05:43:06;2.10;99.90
27567;DHT22;15006;48.584;9.186;2022-11-20T05:45:32;2.00;99.90
27567;DHT22;15006;48.584;9.186;2022-11-20T05:47:59;2.10;99.90
27567;DHT22;15006;48.584;9.186;2022-11-20T05:50:27;2.10;99.90
27567;DHT22;15006;48.584;9.186;2022-11-20T05:52:53;2.00;99.90
27567;DHT22;15006;48.584;9.186;2022-11-20T05:55:19;2.10;99.90
27567;DHT22;15006;48.584;9.186;2022-11-20T05:57:45;2.10;99.90
27567;DHT22;15006;48.584;9.186;2022-11-20T06:00:11;2.00;99.90
27567;DHT22;15006;48.584;9.186;2022-11-20T06:02:38;2.10;99.90
27567;DHT22;15006;48.584;9.186;2022-11-20T06:05:04;2.00;99.90
27567;DHT22;15006;48.584;9.186;2022-11-20T06:07:31;2.10;99.90
27567;DHT22;15006;48.584;9.186;2022-11-20T06:09:57;2.10;99.90
27567;DHT22;15006;48.584;9.186;2022-11-20T06:12:22;2.00;99.90
27567;DHT22;15006;48.584;9.186;2022-11-20T06:14:48;2.10;99.90
27567;DHT22;15006;48.584;9.186;2022-11-20T06:17:14;2.00;99.90
27567;DHT22;15006;48.584;9.186;2022-11-20T06:19:40;2.00;99.90
27567;DHT22;15006;48.584;9.186;2022-11-20T06:22:06;2.00;99.90
27567;DHT22;15006;48.584;9.186;2022-11-20T06:24:32;2.10;99.90
27567;DHT22;15006;48.584;9.186;2022-11-20T06:26:58;2.10;99.90
27567;DHT22;15006;48.584;9.186;2022-11-20T06:29:24;2.10;99.90
27567;DHT22;15006;48.584;9.186;2022-11-20T06:31:50;2.00;99.90
27567;DHT22;15006;48.584;9.186;2022-11-20T06:34:16;2.00;99.90
27567;DHT22;15006;48.584;9.186;2022-11-20T06:36:42;2.10;99.90
27567;DHT22;15006;48.584;9.186;2022-11-20T06:39:08;2.10;99.90
27567;DHT22;15006;48.584;9.186;2022-11-20T06:41:34;2.10;99.90
27567;DHT22;15006;48.584;9.186;2022-11-20T06:44:00;2.10;99.90
27567;DHT22;15006;48.584;9.186;2022-11-20T06:46:27;2.10;99.90
27567;DHT22;15006;48.584;9.186;2022-11-20T06:48:53;2.10;99.90
27567;DHT22;15006;48.584;9.186;2022-11-20T06:51:19;2.10;99.90
27567;DHT22;15006;48.584;9.186;2022-11-20T06:53:45;2.10;99.90
27567;DHT22;15006;48.584;9.186;2022-11-20T06:56:11;2.10;99.90
27567;DHT22;15006;48.584;9.186;2022-11-20T06:58:37;2.10;99.90
27567;DHT22;15006;48.584;9.186;2022-11-20T07:01:08;2.20;99.90
27567;DHT22;15006;48.584;9.186;2022-11-20T07:03:35;2.10;99.90
27567;DHT22;15006;48.584;9.186;2022-11-20T07:06:03;2.10;99.90
27567;DHT22;15006;48.584;9.186;2022-11-20T07:08:30;2.10;99.90
27567;DHT22;15006;48.584;9.186;2022-11-20T07:10:58;2.10;99.90
27567;DHT22;15006;48.584;9.186;2022-11-20T07:13:26;2.10;99.90
27567;DHT22;15006;48.584;9.186;2022-11-20T07:15:53;2.10;99.90
27567;DHT22;15006;48.584;9.186;2022-11-20T07:18:19;2.20;99.90
27567;DHT22;15006;48.584;9.186;2022-11-20T07:20:45;2.20;99.90
27567;DHT22;15006;48.584;9.186;2022-11-20T07:23:11;2.10;99.90
27567;DHT22;15006;48.584;9.186;2022-11-20T07:25:37;2.20;99.90
27567;DHT22;15006;48.584;9.186;2022-11-20T07:28:03;2.20;99.90
27567;DHT22;15006;48.584;9.186;2022-11-20T07:30:30;2.20;99.90
27567;DHT22;15006;48.584;9.186;2022-11-20T07:32:56;2.20;99.90
27567;DHT22;15006;48.584;9.186;2022-11-20T07:35:24;2.20;99.90
27567;DHT22;15006;48.584;9.186;2022-11-20T07:37:50;2.20;99.90
27567;DHT22;15006;48.584;9.186;2022-11-20T07:40:17;2.30;99.90
27567;DHT22;15006;48.584;9.186;2022-11-20T07:42:54;2.30;99.90
27567;DHT22;15006;48.584;9.186;2022-11-20T07:45:22;2.30;99.90
27567;DHT22;15006;48.584;9.186;2022-11-20T07:47:50;2.30;99.90
27567;DHT22;15006;48.584;9.186;2022-11-20T07:50:17;2.30;99.90
27567;DHT22;15006;48.584;9.186;2022-11-20T07:52:44;2.40;99.90
27567;DHT22;15006;48.584;9.186;2022-11-20T07:55:10;2.40;99.90
27567;DHT22;15006;48.584;9.186;2022-11-20T07:57:36;2.50;99.90
27567;DHT22;15006;48.584;9.186;2022-11-20T08:00:04;2.50;99.90
27567;DHT22;15006;48.584;9.186;2022-11-20T08:02:31;2.50;99.90
27567;DHT22;15006;48.584;9.186;2022-11-20T08:04:57;2.50;99.90
27567;DHT22;15006;48.584;9.186;2022-11-20T08:07:23;2.60;99.90
27567;DHT22;15006;48.584;9.186;2022-11-20T08:09:49;2.60;99.90
27567;DHT22;15006;48.584;9.186;2022-11-20T08:12:20;2.70;99.90
27567;DHT22;15006;48.584;9.186;2022-11-20T08:15:06;2.70;99.90
27567;DHT22;15006;48.584;9.186;2022-11-20T08:17:32;2.80;99.90
27567;DHT22;15006;48.584;9.186;2022-11-20T08:19:58;2.80;99.90
27567;DHT22;15006;48.584;9.186;2022-11-20T08:22:24;2.80;99.90
27567;DHT22;15006;48.584;9.186;2022-11-20T08:24:50;2.90;99.90
27567;DHT22;15006;48.584;9.186;2022-11-20T08:27:16;2.90;99.90
27567;DHT22;15006;48.584;9.186;2022-11-20T08:29:42;2.90;99.90
27567;DHT22;15006;48.584;9.186;2022-11-20T08:32:08;3.00;99.90
27567;DHT22;15006;48.584;9.186;2022-11-20T08:34:34;3.00;99.90
27567;DHT22;15006;48.584;9.186;2022-11-20T08:37:02;3.00;99.90
27567;DHT22;15006;48.584;9.186;2022-11-20T08:39:28;3.00;99.90
27567;DHT22;15006;48.584;9.186;2022-11-20T08:41:54;3.00;99.90
27567;DHT22;15006;48.584;9.186;2022-11-20T08:44:20;3.10;99.90
27567;DHT22;15006;48.584;9.186;2022-11-20T08:46:46;3.10;99.90
27567;DHT22;15006;48.584;9.186;2022-11-20T08:49:13;3.10;99.90
27567;DHT22;15006;48.584;9.186;2022-11-20T08:51:41;3.10;99.90
27567;DHT22;15006;48.584;9.186;2022-11-20T08:54:08;3.20;99.90
27567;DHT22;15006;48.584;9.186;2022-11-20T08:56:34;3.20;99.90
27567;DHT22;15006;48.584;9.186;2022-11-20T08:59:00;3.20;99.90
27567;DHT22;15006;48.584;9.186;2022-11-20T09:01:28;3.20;99.90
27567;DHT22;15006;48.584;9.186;2022-11-20T09:03:55;3.20;99.90
27567;DHT22;15006;48.584;9.186;2022-11-20T09:06:25;3.30;99.90
27567;DHT22;15006;48.584;9.186;2022-11-20T09:08:52;3.30;99.90
27567;DHT22;15006;48.584;9.186;2022-11-20T09:11:19;3.30;99.90
27567;DHT22;15006;48.584;9.186;2022-11-20T09:13:45;3.40;99.90
27567;DHT22;15006;48.584;9.186;2022-11-20T09:16:11;3.50;99.90
27567;DHT22;15006;48.584;9.186;2022-11-20T09:18:37;3.50;99.90
27567;DHT22;15006;48.584;9.186;2022-11-20T09:21:12;3.50;99.90
27567;DHT22;15006;48.584;9.186;2022-11-20T09:23:39;3.50;99.90
27567;DHT22;15006;48.584;9.186;2022-11-20T09:26:08;3.50;99.90
27567;DHT22;15006;48.584;9.186;2022-11-20T09:28:36;3.60;99.90
27567;DHT22;15006;48.584;9.186;2022-11-20T09:31:15;3.60;99.90
27567;DHT22;15006;48.584;9.186;2022-11-20T09:33:45;3.60;99.90
27567;DHT22;15006;48.584;9.186;2022-11-20T09:36:11;3.70;99.90
27567;DHT22;15006;48.584;9.186;2022-11-20T09:38:37;3.70;99.90
27567;DHT22;15006;48.584;9.186;2022-11-20T09:41:06;3.70;99.90
27567;DHT22;15006;48.584;9.186;2022-11-20T09:43:55;3.80;99.90
27567;DHT22;15006;48.584;9.186;2022-11-20T09:46:37;3.80;99.90
27567;DHT22;15006;48.584;9.186;2022-11-20T09:52:09;3.80;99.90
27567;DHT22;15006;48.584;9.186;2022-11-20T09:54:45;3.80;99.90
27567;DHT22;15006;48.584;9.186;2022-11-20T09:57:19;3.80;99.90
27567;DHT22;15006;48.584;9.186;2022-11-20T09:59:55;3.80;99.90
27567;DHT22;15006;48.584;9.186;2022-11-20T10:08:10;3.80;99.90
27567;DHT22;15006;48.584;9.186;2022-11-20T10:10:44;3.80;99.90
27567;DHT22;15006;48.584;9.186;2022-11-20T10:16:39;3.80;99.90
27567;DHT22;15006;48.584;9.186;2022-11-20T10:22:30;3.90;99.90
27567;DHT22;15006;48.584;9.186;2022-11-20T10:25:17;3.90;99.90
27567;DHT22;15006;48.584;9.186;2022-11-20T10:31:34;4.00;99.90
27567;DHT22;15006;48.584;9.186;2022-11-20T10:36:57;3.90;99.90
27567;DHT22;15006;48.584;9.186;2022-11-20T10:42:37;4.00;99.90
27567;DHT22;15006;48.584;9.186;2022-11-20T10:48:12;4.00;99.90
27567;DHT22;15006;48.584;9.186;2022-11-20T10:56:38;4.00;99.90
27567;DHT22;15006;48.584;9.186;2022-11-20T11:07:49;4.20;99.90
27567;DHT22;15006;48.584;9.186;2022-11-20T11:10:21;4.20;99.90
27567;DHT22;15006;48.584;9.186;2022-11-20T11:12:50;4.30;99.90
27567;DHT22;15006;48.584;9.186;2022-11-20T11:18:10;4.40;99.90
27567;DHT22;15006;48.584;9.186;2022-11-20T11:20:37;4.50;99.90
27567;DHT22;15006;48.584;9.186;2022-11-20T11:23:03;4.60;99.90
27567;DHT22;15006;48.584;9.186;2022-11-20T11:25:35;4.60;99.90
27567;DHT22;15006;48.584;9.186;2022-11-20T11:28:20;4.70;99.90
27567;DHT22;15006;48.584;9.186;2022-11-20T11:30:47;4.80;99.90
27567;DHT22;15006;48.584;9.186;2022-11-20T11:33:27;4.80;99.90
27567;DHT22;15006;48.584;9.186;2022-11-20T11:35:58;4.80;99.90
27567;DHT22;15006;48.584;9.186;2022-11-20T11:38:35;4.80;99.90
27567;DHT22;15006;48.584;9.186;2022-11-20T11:41:16;5.00;99.90
27567;DHT22;15006;48.584;9.186;2022-11-20T11:43:53;5.30;99.90
27567;DHT22;15006;48.584;9.186;2022-11-20T11:46:43;5.50;99.90
27567;DHT22;15006;48.584;9.186;2022-11-20T11:49:19;5.90;99.90
27567;DHT22;15006;48.584;9.186;2022-11-20T11:54:53;6.40;99.90
27567;DHT22;15006;48.584;9.186;2022-11-20T11:57:24;6.50;96.60
27567;DHT22;15006;48.584;9.186;2022-11-20T12:00:05;6.60;99.90
27567;DHT22;15006;48.584;9.186;2022-11-20T12:08:29;7.30;99.90
27567;DHT22;15006;48.584;9.186;2022-11-20T12:16:41;8.50;87.00
27567;DHT22;15006;48.584;9.186;2022-11-20T12:19:12;8.70;90.90
27567;DHT22;15006;48.584;9.186;2022-11-20T12:21:53;8.70;81.30
27567;DHT22;15006;48.584;9.186;2022-11-20T12:30:41;7.90;74.50
27567;DHT22;15006;48.584;9.186;2022-11-20T12:38:50;6.80;83.70
27567;DHT22;15006;48.584;9.186;2022-11-20T12:59:33;5.40;88.40
27567;DHT22;15006;48.584;9.186;2022-11-20T13:05:02;5.40;87.40
27567;DHT22;15006;48.584;9.186;2022-11-20T13:07:36;5.30;90.70
27567;DHT22;15006;48.584;9.186;2022-11-20T13:10:04;5.40;91.90
27567;DHT22;15006;48.584;9.186;2022-11-20T13:12:47;5.50;92.90
27567;DHT22;15006;48.584;9.186;2022-11-20T13:18:13;6.20;88.30
27567;DHT22;15006;48.584;9.186;2022-11-20T13:20:44;6.50;88.20
27567;DHT22;15006;48.584;9.186;2022-11-20T13:23:11;6.50;83.90
27567;DHT22;15006;48.584;9.186;2022-11-20T13:25:39;6.40;83.30
27567;DHT22;15006;48.584;9.186;2022-11-20T13:30:49;6.20;85.10
27567;DHT22;15006;48.584;9.186;2022-11-20T13:36:03;5.90;84.00
27567;DHT22;15006;48.584;9.186;2022-11-20T13:38:57;5.70;83.90
27567;DHT22;15006;48.584;9.186;2022-11-20T13:41:35;5.50;82.90
27567;DHT22;15006;48.584;9.186;2022-11-20T13:45:11;5.40;84.20
27567;DHT22;15006;48.584;9.186;2022-11-20T13:47:21;5.30;83.40
27567;DHT22;15006;48.584;9.186;2022-11-20T13:49:49;5.20;86.00
27567;DHT22;15006;48.584;9.186;2022-11-20T13:55:31;5.00;85.30
27567;DHT22;15006;48.584;9.186;2022-11-20T13:58:16;5.00;89.80
27567;DHT22;15006;48.584;9.186;2022-11-20T14:00:55;5.10;89.60
27567;DHT22;15006;48.584;9.186;2022-11-20T14:03:29;5.20;90.20
27567;DHT22;15006;48.584;9.186;2022-11-20T14:06:00;5.40;86.30
27567;DHT22;15006;48.584;9.186;2022-11-20T14:08:40;5.40;85.60
27567;DHT22;15006;48.584;9.186;2022-11-20T14:14:16;5.30;82.80
27567;DHT22;15006;48.584;9.186;2022-11-20T14:16:43;5.20;82.70
27567;DHT22;15006;48.584;9.186;2022-11-20T14:19:29;5.10;87.40
27567;DHT22;15006;48.584;9.186;2022-11-20T14:22:21;5.00;84.70
27567;DHT22;15006;48.584;9.186;2022-11-20T14:25:00;4.90;85.10
27567;DHT22;15006;48.584;9.186;2022-11-20T14:27:35;4.80;88.00
27567;DHT22;15006;48.584;9.186;2022-11-20T14:30:03;4.70;90.00
27567;DHT22;15006;48.584;9.186;2022-11-20T14:32:31;4.60;90.90
27567;DHT22;15006;48.584;9.186;2022-11-20T14:35:08;4.60;91.10
27567;DHT22;15006;48.584;9.186;2022-11-20T14:37:38;4.50;89.90
27567;DHT22;15006;48.584;9.186;2022-11-20T14:40:26;4.50;90.60
27567;DHT22;15006;48.584;9.186;2022-11-20T14:42:55;4.50;88.10
27567;DHT22;15006;48.584;9.186;2022-11-20T14:45:23;4.40;90.90
27567;DHT22;15006;48.584;9.186;2022-11-20T14:47:52;4.40;91.00
27567;DHT22;15006;48.584;9.186;2022-11-20T14:50:28;4.40;91.30
27567;DHT22;15006;48.584;9.186;2022-11-20T14:52:59;4.40;91.20
27567;DHT22;15006;48.584;9.186;2022-11-20T14:55:33;4.30;90.90
27567;DHT22;15006;48.584;9.186;2022-11-20T14:58:21;4.30;92.10
27567;DHT22;15006;48.584;9.186;2022-11-20T15:01:01;4.30;91.00
27567;DHT22;15006;48.584;9.186;2022-11-20T15:03:32;4.20;91.80
27567;DHT22;15006;48.584;9.186;2022-11-20T15:06:00;4.20;92.80
27567;DHT22;15006;48.584;9.186;2022-11-20T15:08:27;4.20;93.30
27567;DHT22;15006;48.584;9.186;2022-11-20T15:10:54;4.10;93.50
27567;DHT22;15006;48.584;9.186;2022-11-20T15:13:24;4.10;93.70
27567;DHT22;15006;48.584;9.186;2022-11-20T15:15:55;4.10;94.00
27567;DHT22;15006;48.584;9.186;2022-11-20T15:18:26;4.00;94.00
27567;DHT22;15006;48.584;9.186;2022-11-20T15:20:55;4.00;94.00
27567;DHT22;15006;48.584;9.186;2022-11-20T15:23:22;3.90;94.20
27567;DHT22;15006;48.584;9.186;2022-11-20T15:25:49;3.90;94.60
27567;DHT22;15006;48.584;9.186;2022-11-20T15:28:21;3.80;94.80
27567;DHT22;15006;48.584;9.186;2022-11-20T15:30:53;3.80;94.50
27567;DHT22;15006;48.584;9.186;2022-11-20T15:33:19;3.80;95.10
27567;DHT22;15006;48.584;9.186;2022-11-20T15:35:45;3.70;95.20
27567;DHT22;15006;48.584;9.186;2022-11-20T15:38:11;3.70;95.00
27567;DHT22;15006;48.584;9.186;2022-11-20T15:40:37;3.50;95.40
27567;DHT22;15006;48.584;9.186;2022-11-20T15:43:03;3.50;95.60
27567;DHT22;15006;48.584;9.186;2022-11-20T15:45:55;3.50;96.00
27567;DHT22;15006;48.584;9.186;2022-11-20T15:48:44;3.40;94.60
27567;DHT22;15006;48.584;9.186;2022-11-20T15:53:45;3.30;95.70
27567;DHT22;15006;48.584;9.186;2022-11-20T15:56:12;3.10;95.60
27567;DHT22;15006;48.584;9.186;2022-11-20T15:58:39;3.10;95.60
27567;DHT22;15006;48.584;9.186;2022-11-20T16:01:09;3.00;95.70
27567;DHT22;15006;48.584;9.186;2022-11-20T16:03:40;2.90;95.90
27567;DHT22;15006;48.584;9.186;2022-11-20T16:06:07;2.80;96.00
27567;DHT22;15006;48.584;9.186;2022-11-20T16:08:34;2.70;96.10
27567;DHT22;15006;48.584;9.186;2022-11-20T16:11:00;2.70;96.20
27567;DHT22;15006;48.584;9.186;2022-11-20T16:13:26;2.60;96.40
27567;DHT22;15006;48.584;9.186;2022-11-20T16:16:35;2.50;96.50
27567;DHT22;15006;48.584;9.186;2022-11-20T16:19:02;2.40;95.90
27567;DHT22;15006;48.584;9.186;2022-11-20T16:21:29;2.40;97.00
27567;DHT22;15006;48.584;9.186;2022-11-20T16:24:03;2.30;97.30
27567;DHT22;15006;48.584;9.186;2022-11-20T16:26:32;2.20;97.70
27567;DHT22;15006;48.584;9.186;2022-11-20T16:29:00;2.20;98.20
27567;DHT22;15006;48.584;9.186;2022-11-20T16:31:29;2.10;98.80
27567;DHT22;15006;48.584;9.186;2022-11-20T16:33:58;2.10;99.40
27567;DHT22;15006;48.584;9.186;2022-11-20T16:36:28;2.10;99.90
27567;DHT22;15006;48.584;9.186;2022-11-20T16:38:56;2.10;99.90
27567;DHT22;15006;48.584;9.186;2022-11-20T16:41:25;2.10;99.90
27567;DHT22;15006;48.584;9.186;2022-11-20T16:43:55;2.10;99.90
27567;DHT22;15006;48.584;9.186;2022-11-20T16:46:29;2.10;99.90
27567;DHT22;15006;48.584;9.186;2022-11-20T16:48:58;2.10;99.90
27567;DHT22;15006;48.584;9.186;2022-11-20T16:51:27;2.20;99.90
27567;DHT22;15006;48.584;9.186;2022-11-20T16:53:54;2.20;99.90
27567;DHT22;15006;48.584;9.186;2022-11-20T16:56:24;2.30;99.90
27567;DHT22;15006;48.584;9.186;2022-11-20T16:58:55;2.30;99.90
27567;DHT22;15006;48.584;9.186;2022-11-20T17:01:24;2.30;99.90
27567;DHT22;15006;48.584;9.186;2022-11-20T17:03:56;2.40;99.90
27567;DHT22;15006;48.584;9.186;2022-11-20T17:06:35;2.40;99.90
27567;DHT22;15006;48.584;9.186;2022-11-20T17:09:03;2.50;99.90
27567;DHT22;15006;48.584;9.186;2022-11-20T17:11:30;2.50;99.90
27567;DHT22;15006;48.584;9.186;2022-11-20T17:13:58;2.60;99.90
27567;DHT22;15006;48.584;9.186;2022-11-20T17:16:34;2.60;99.90
27567;DHT22;15006;48.584;9.186;2022-11-20T17:19:02;2.70;99.90
27567;DHT22;15006;48.584;9.186;2022-11-20T17:21:31;2.70;99.90
27567;DHT22;15006;48.584;9.186;2022-11-20T17:24:03;2.70;99.90
27567;DHT22;15006;48.584;9.186;2022-11-20T17:26:32;2.80;99.90
27567;DHT22;15006;48.584;9.186;2022-11-20T17:29:01;2.80;99.90
27567;DHT22;15006;48.584;9.186;2022-11-20T17:31:29;2.80;99.90
27567;DHT22;15006;48.584;9.186;2022-11-20T17:33:57;2.90;99.90
27567;DHT22;15006;48.584;9.186;2022-11-20T17:36:28;2.90;99.90
27567;DHT22;15006;48.584;9.186;2022-11-20T17:38:54;3.00;99.90
27567;DHT22;15006;48.584;9.186;2022-11-20T17:41:22;3.00;99.90
27567;DHT22;15006;48.584;9.186;2022-11-20T17:43:53;3.00;99.90
27567;DHT22;15006;48.584;9.186;2022-11-20T17:46:23;3.00;99.90
27567;DHT22;15006;48.584;9.186;2022-11-20T17:48:51;3.10;99.90
27567;DHT22;15006;48.584;9.186;2022-11-20T17:51:25;3.10;99.90
27567;DHT22;15006;48.584;9.186;2022-11-20T17:53:55;3.10;99.90
27567;DHT22;15006;48.584;9.186;2022-11-20T17:56:24;3.10;99.90
27567;DHT22;15006;48.584;9.186;2022-11-20T17:59:11;3.20;99.90
27567;DHT22;15006;48.584;9.186;2022-11-20T18:01:39;3.10;99.90
27567;DHT22;15006;48.584;9.186;2022-11-20T18:04:09;3.20;99.90
27567;DHT22;15006;48.584;9.186;2022-11-20T18:06:36;3.20;99.90